Hovedside
METAR-TAF:

METAR-TAF

Lufthavner :

Halmstad lufthavn

Halmstad, Sverige

breddegrad: 56-41N, lengdegrad: 012-50E, høyde over havet: 30 m

Gjeldene værobservasjon

Denne rapporten ble laget for 26 minutter siden, klokken 18:20 UTC
Vind 8 kt fra Øst-nordøst
Temperatur 3°C
Luftfuktighet 87%
Trykk 1033 hPa
Sikt 10 km eller mer
Få skyer i en høyde av 1800 ft
Spredte skyer i en høyde av 2100 ft
Brutte skyer i en høyde av 2600 ft

METAR: ESMT 191820Z 06008KT 9999 FEW018 SCT021 BKN026 03/01 Q1033

Tid: 19:46 (18:46 UTC)

Varsel

Denne rapporten ble laget for 1 time og 43 minutter siden, klokken 17:03 UTC
Varsel gyldig fra 19. klokken 18 UTC til 19. klokken 22 UTC
Vind 10 kt fra Øst-nordøst
Sikt 10 km eller mer
Brutte skyer i en høyde av 2000 ft

TAF: ESMT 191703Z 1918/1922 06010KT 9999 BKN020

Værobservasjoner og værvarsel for over 4000 flyplasser (METAR- og TAF-rapporter).

Tilgjengelige stasjoner er representert av de røde og gule prikkene på kartet.

Hold musepekeren over prikken for å se navnet på stasjonen.

Klikk så for å se værobservasjoner og -varsler.

For å forandre kartet kan du klikke på den grønne knappen med svart kryss for å zoome inn, på den grønne knappen med strek for å zoome ut, eller på de grønne pilene for å se tilstøtende kart.


METAR-TAF: